Time;durP1;ratioP1;P1;durP2;ratioP2;P2;SDS_P1;SDS_P2;PMS_P1;PMS_P2;Temp;Humidity;BMP_temperature;BMP_pressure;BME280_temperature;BME280_humidity;BME280_pressure;Samples;Min_cycle;Max_cycle;Signal;HPM_P1;HPM_P2
2022/02/03 00:00:19;;;;;;;17.58;8.85;;;;;;;-3.51;70.42;98307.47;4988398;28;20042;-59
2022/02/03 00:06:01;;;;;;;12.00;7.80;;;;;;;-3.52;70.99;98304.06;4981971;28;20093;-58
2022/02/03 00:11:30;;;;;;;15.25;7.90;;;;;;;-3.54;69.72;98307.81;4992710;28;20038;-58
2022/02/03 00:16:57;;;;;;;12.70;7.57;;;;;;;-3.63;70.39;98309.66;4971814;28;20050;-59
2022/02/03 00:25:08;;;;;;;16.13;8.27;;;;;;;-3.38;70.23;98309.47;4972883;28;20042;-58
2022/02/03 00:27:58;;;;;;;15.43;8.27;;;;;;;-3.24;69.90;98319.06;4972898;28;20058;-58
2022/02/03 00:30:59;;;;;;;18.95;8.68;;;;;;;-3.22;69.54;98314.50;4971574;28;20047;-58
2022/02/03 00:33:33;;;;;;;15.20;8.02;;;;;;;-3.19;69.51;98316.75;4972952;28;20078;-58
2022/02/03 00:49:10;;;;;;;16.92;8.55;;;;;;;-2.97;69.22;98305.53;4971660;28;20421;-59
2022/02/03 00:51:37;;;;;;;16.45;8.30;;;;;;;-2.91;68.73;98314.41;4972502;28;20042;-59
2022/02/03 00:54:08;;;;;;;16.65;8.55;;;;;;;-2.87;68.63;98307.06;4972875;28;20058;-58
2022/02/03 00:56:36;;;;;;;16.33;8.48;;;;;;;-2.86;68.66;98299.09;4972603;28;20046;-58
2022/02/03 00:59:10;;;;;;;18.85;9.02;;;;;;;-2.86;68.90;98306.06;4973007;28;20043;-59
2022/02/03 01:01:38;;;;;;;14.75;8.20;;;;;;;-2.92;69.21;98302.41;4977516;28;20485;-59
2022/02/03 01:04:06;;;;;;;21.45;10.00;;;;;;;-2.90;69.75;98316.00;4996112;28;20456;-57
2022/02/03 01:06:33;;;;;;;18.50;8.93;;;;;;;-2.89;69.54;98311.63;4995747;28;20147;-58
2022/02/03 01:08:59;;;;;;;15.70;8.88;;;;;;;-2.98;69.18;98305.72;4996080;28;20542;-59
2022/02/03 01:11:34;;;;;;;17.92;9.63;;;;;;;-3.17;70.20;98312.22;4988757;28;20042;-58
2022/02/03 01:14:10;;;;;;;16.20;8.13;;;;;;;-3.15;70.11;98310.22;4995236;28;20042;-58
2022/02/03 01:44:28;;;;;;;18.40;9.23;;;;;;;-2.82;68.11;98313.34;4994931;28;20112;-58
2022/02/03 01:51:37;;;;;;;22.67;10.20;;;;;;;-2.73;67.71;98321.84;4994897;28;20635;-57
2022/02/03 01:52:19;;;;;;;15.93;9.13;;;;;;;-2.68;67.60;98314.31;4994802;28;20491;-58
2022/02/03 01:54:49;;;;;;;21.55;10.13;;;;;;;-2.60;68.31;98323.81;4993879;28;20042;-58
2022/02/03 01:57:18;;;;;;;15.07;8.75;;;;;;;-2.54;67.66;98321.28;4994411;28;20051;-56
2022/02/03 01:59:45;;;;;;;15.63;8.85;;;;;;;-2.49;66.98;98319.97;4994592;28;20393;-58
2022/02/03 02:02:11;;;;;;;17.85;9.70;;;;;;;-2.64;67.46;98332.94;4993817;28;20571;-59
2022/02/03 02:05:11;;;;;;;19.88;10.57;;;;;;;-2.72;67.71;98339.00;4994574;28;20130;-59
2022/02/03 02:07:57;;;;;;;18.73;9.60;;;;;;;-2.65;67.63;98332.09;4973798;28;20062;-58
2022/02/03 02:19:21;;;;;;;22.35;10.20;;;;;;;-2.53;67.05;98327.28;4989681;28;20062;-59
2022/02/03 02:39:21;;;;;;;18.67;10.35;;;;;;;-2.49;67.73;98333.75;4993245;28;20256;-59
2022/02/03 02:44:44;;;;;;;20.75;9.65;;;;;;;-2.38;67.42;98341.09;4987405;28;20077;-58
2022/02/03 02:47:13;;;;;;;;;;;;;;;-2.48;67.24;98335.34;4984045;28;20039;-58
2022/02/03 02:50:05;;;;;;;23.77;10.23;;;;;;;-2.47;68.14;98336.13;4989003;28;19968;-59
2022/02/03 02:52:40;;;;;;;16.90;9.30;;;;;;;-2.46;68.45;98346.34;5012747;28;20049;-58
2022/02/03 03:33:40;;;;;;;22.40;11.50;;;;;;;-2.54;69.10;98360.22;4991737;28;20042;-59
2022/02/03 03:36:12;;;;;;;22.17;11.02;;;;;;;-2.56;68.44;98364.78;4991613;28;20508;-58
2022/02/03 03:38:40;;;;;;;25.58;11.15;;;;;;;-2.54;68.67;98360.22;4992886;28;20046;-58
2022/02/03 03:41:06;;;;;;;24.40;12.13;;;;;;;-2.47;69.11;98365.50;4992591;28;20097;-59
2022/02/03 03:43:45;;;;;;;23.55;11.63;;;;;;;-2.45;68.51;98367.91;4993099;28;20043;-58
2022/02/03 03:46:21;;;;;;;19.70;10.52;;;;;;;-2.45;68.86;98366.13;4991624;28;20042;-58
2022/02/03 03:49:10;;;;;;;18.33;11.20;;;;;;;-2.38;68.79;98368.78;4991172;28;20502;-59
2022/02/03 03:51:42;;;;;;;18.67;11.25;;;;;;;-2.36;68.86;98370.22;4991040;28;20531;-58
2022/02/03 03:54:12;;;;;;;22.50;11.48;;;;;;;-2.57;68.16;98370.94;4991371;28;20054;-59
2022/02/03 03:56:54;;;;;;;24.52;11.23;;;;;;;-2.69;69.27;98362.00;4986644;28;20046;-58
2022/02/03 04:32:15;;;;;;;17.65;10.25;;;;;;;-2.86;70.02;98379.50;4957734;28;20081;-59
2022/02/03 04:37:54;;;;;;;21.50;10.57;;;;;;;-2.95;69.89;98387.53;4983523;28;20397;-61
2022/02/03 05:04:27;;;;;;;19.88;9.82;;;;;;;-2.96;70.39;98415.25;4999135;28;20046;-61
2022/02/03 05:10:13;;;;;;;25.50;11.30;;;;;;;-2.83;69.77;98404.28;4991664;28;20108;-59
2022/02/03 05:13:20;;;;;;;20.85;10.43;;;;;;;-2.75;69.59;98417.97;4983296;28;20137;-59
2022/02/03 05:17:00;;;;;;;18.33;9.75;;;;;;;-2.71;70.15;98412.44;4986550;28;20109;-61
2022/02/03 05:19:19;;;;;;;21.25;11.00;;;;;;;-2.71;69.49;98412.44;4973610;28;20050;-57
2022/02/03 06:15:03;;;;;;;22.60;11.20;;;;;;;-1.97;66.68;98444.47;4990199;28;20117;-62
2022/02/03 06:17:48;;;;;;;25.35;10.35;;;;;;;-1.92;66.57;98460.28;4990427;28;20042;-58
2022/02/03 06:23:05;;;;;;;22.40;12.40;;;;;;;-1.77;66.87;98460.28;4989714;28;20073;-60
2022/02/03 06:28:15;;;;;;;20.92;10.63;;;;;;;-1.63;65.31;98453.47;4987600;28;20073;-62
2022/02/03 06:30:41;;;;;;;18.25;11.43;;;;;;;-1.65;65.69;98464.06;5005068;28;20042;-61
2022/02/03 06:33:08;;;;;;;17.58;10.85;;;;;;;-1.63;65.03;98456.06;4989145;28;20504;-59
2022/02/03 06:35:34;;;;;;;19.48;10.50;;;;;;;-1.66;64.66;98459.81;4974396;28;20138;-61
2022/02/03 06:38:00;;;;;;;20.88;11.02;;;;;;;-1.66;65.46;98459.03;4988187;28;20121;-59
2022/02/03 06:40:25;;;;;;;21.70;10.05;;;;;;;-1.69;65.38;98454.19;4974505;28;20051;-60
2022/02/03 06:42:56;;;;;;;24.23;11.65;;;;;;;-1.75;65.18;98458.31;4982065;28;20054;-63
2022/02/03 06:45:40;;;;;;;22.48;11.60;;;;;;;-1.94;65.44;98462.28;4975652;28;20051;-59
2022/02/03 06:48:15;;;;;;;21.33;11.27;;;;;;;-2.02;65.65;98453.78;4980734;28;20045;-59
2022/02/03 06:50:46;;;;;;;19.45;11.00;;;;;;;-2.11;65.75;98448.66;4987641;28;20051;-60
2022/02/03 06:53:19;;;;;;;22.70;11.32;;;;;;;-2.18;65.95;98447.75;4986764;28;20108;-60
2022/02/03 06:55:55;;;;;;;19.30;11.02;;;;;;;-2.19;66.49;98453.13;4990992;28;20038;-60
2022/02/03 06:58:27;;;;;;;20.85;11.63;;;;;;;-2.24;65.84;98453.66;4991840;28;20049;-63
2022/02/03 07:01:05;;;;;;;23.08;12.77;;;;;;;-2.26;66.35;98447.03;4991219;28;20436;-62
2022/02/03 07:03:51;;;;;;;26.13;11.77;;;;;;;-2.25;65.98;98453.84;4989971;28;20043;-59
2022/02/03 07:07:08;;;;;;;28.83;16.38;;;;;;;-2.25;66.73;98459.03;4969531;28;20109;-60
2022/02/03 07:09:36;;;;;;;19.73;12.80;;;;;;;-2.23;66.37;98472.66;4946369;28;20057;-58
2022/02/03 07:12:05;;;;;;;23.50;12.05;;;;;;;-2.18;66.37;98465.94;4981967;28;20043;-62
2022/02/03 07:14:32;;;;;;;25.60;13.20;;;;;;;-2.11;65.91;98468.63;4982959;28;20526;-61
2022/02/03 07:17:00;;;;;;;26.52;17.35;;;;;;;-2.08;65.88;98468.28;4979243;28;20046;-58
2022/02/03 07:19:26;;;;;;;23.30;13.20;;;;;;;-2.06;65.90;98467.13;4994484;28;20047;-59
2022/02/03 07:21:52;;;;;;;22.55;13.70;;;;;;;-2.03;65.94;98467.72;4998439;28;20047;-60
2022/02/03 07:24:18;;;;;;;27.33;13.20;;;;;;;-1.99;65.64;98469.00;5003964;28;20065;-60
2022/02/03 07:26:45;;;;;;;24.63;13.00;;;;;;;-1.91;65.63;98469.72;4977349;28;20512;-60
2022/02/03 07:29:11;;;;;;;26.88;12.35;;;;;;;-1.78;65.31;98473.47;4996611;28;20522;-60
2022/02/03 07:31:38;;;;;;;24.25;12.52;;;;;;;-1.75;65.06;98460.91;4981192;28;20176;-60
2022/02/03 07:34:14;;;;;;;23.13;12.77;;;;;;;-1.60;64.44;98484.28;4975318;28;20403;-59
2022/02/03 07:36:43;;;;;;;26.58;12.48;;;;;;;-1.61;64.38;98469.69;4977805;28;20117;-57
2022/02/03 07:39:10;;;;;;;25.25;12.95;;;;;;;-1.55;64.20;98481.16;5003544;28;20176;-61
2022/02/03 07:41:36;;;;;;;27.27;12.82;;;;;;;-1.54;63.87;98478.34;4986631;28;20045;-60
2022/02/03 07:44:02;;;;;;;22.05;11.57;;;;;;;-1.57;63.98;98486.53;4970118;28;20197;-60
2022/02/03 07:46:31;;;;;;;22.48;11.98;;;;;;;-1.60;63.86;98487.69;4971167;28;20504;-60
2022/02/03 07:48:58;;;;;;;17.10;10.27;;;;;;;-1.65;64.41;98490.03;4977614;28;20093;-59
2022/02/03 07:51:25;;;;;;;23.25;10.88;;;;;;;-1.78;63.99;98486.47;4972793;28;20046;-60
2022/02/03 07:53:51;;;;;;;18.23;10.38;;;;;;;-2.06;64.04;98448.13;4973440;28;20043;-57
2022/02/03 07:56:17;;;;;;;20.20;10.35;;;;;;;-1.85;63.91;98489.78;4986767;28;20204;-59
2022/02/03 07:58:43;;;;;;;21.80;11.40;;;;;;;-1.89;64.53;98500.69;5003363;28;20121;-59
2022/02/03 08:01:09;;;;;;;22.73;11.52;;;;;;;-1.83;64.18;98499.97;4988405;28;20397;-60
2022/02/03 08:03:40;;;;;;;23.75;10.93;;;;;;;-1.78;64.00;98495.06;4972779;28;20038;-60
2022/02/03 08:06:09;;;;;;;21.10;10.57;;;;;;;-1.68;63.20;98497.38;4989672;28;20042;-59
2022/02/03 08:08:47;;;;;;;25.73;11.45;;;;;;;-1.61;63.27;98503.47;4985211;28;20126;-59
2022/02/03 08:11:23;;;;;;;22.42;12.77;;;;;;;-1.53;63.28;98499.94;4969385;28;20413;-59
2022/02/03 08:16:22;;;;;;;22.20;11.30;;;;;;;-1.41;62.24;98506.31;4972279;28;20042;-60
2022/02/03 08:18:53;;;;;;;18.70;11.07;;;;;;;-1.33;62.24;98513.19;4958244;28;20043;-58
2022/02/03 08:21:21;;;;;;;18.95;10.07;;;;;;;-1.33;61.18;98508.00;4975827;28;20101;-61
2022/02/03 08:31:21;;;;;;;29.60;14.50;;;;;;;-0.84;60.57;98515.94;4989203;28;20112;-59
2022/02/03 08:33:50;;;;;;;30.35;12.50;;;;;;;-0.60;59.47;98516.56;4972201;28;20053;-60
2022/02/03 08:36:17;;;;;;;26.98;12.32;;;;;;;-0.43;59.33;98520.50;4986622;28;20095;-58
2022/02/03 08:41:09;;;;;;;28.25;12.75;;;;;;;0.01;58.37;98521.25;5004352;28;20042;-60
2022/02/03 08:43:36;;;;;;;24.73;13.20;;;;;;;0.07;58.04;98518.69;4982761;28;20065;-60
2022/02/03 08:46:06;;;;;;;30.35;12.82;;;;;;;0.11;58.15;98519.09;4972165;28;20607;-62
2022/02/03 08:48:32;;;;;;;24.77;12.52;;;;;;;0.11;57.76;98512.06;4997481;28;20129;-59
2022/02/03 08:51:00;;;;;;;20.73;11.23;;;;;;;0.02;58.07;98523.66;4969179;28;20050;-61
2022/02/03 08:53:35;;;;;;;23.20;12.52;;;;;;;-0.11;58.79;98513.16;4969098;28;20047;-60
2022/02/03 08:58:59;;;;;;;22.05;12.05;;;;;;;-0.15;60.25;98511.91;5003987;28;20472;-59
2022/02/03 09:50:03;;;;;;;24.50;12.15;;;;;;;0.36;57.54;98486.34;4978749;28;20038;-58
2022/02/03 09:58:00;;;;;;;25.05;11.50;;;;;;;1.08;52.91;98492.81;4990588;28;20090;-57
2022/02/03 10:00:26;;;;;;;27.88;12.80;;;;;;;1.10;53.07;98492.63;4991530;28;20039;-60
2022/02/03 10:03:01;;;;;;;21.98;10.93;;;;;;;1.05;52.92;98498.41;4979796;28;20184;-59
2022/02/03 10:05:36;;;;;;;22.20;12.20;;;;;;;1.00;52.65;98495.63;4973148;28;20134;-57
2022/02/03 10:08:03;;;;;;;26.20;12.45;;;;;;;0.94;52.02;98493.78;4989876;28;20519;-58
2022/02/03 10:10:30;;;;;;;20.23;11.75;;;;;;;0.96;51.93;98497.00;4991430;28;20133;-61
2022/02/03 10:12:56;;;;;;;21.23;11.10;;;;;;;0.95;52.37;98499.81;4982545;28;20736;-57
2022/02/03 10:15:22;;;;;;;22.60;10.43;;;;;;;0.99;52.06;98486.16;4973854;28;20046;-61
2022/02/03 10:17:50;;;;;;;19.58;11.50;;;;;;;0.94;52.24;98478.13;4970369;28;20104;-59
2022/02/03 10:20:19;;;;;;;23.17;11.30;;;;;;;0.93;51.87;98486.94;4987482;28;20038;-61
2022/02/03 10:22:55;;;;;;;22.48;12.13;;;;;;;0.87;52.79;98485.94;4986604;28;20140;-60
2022/02/03 10:25:24;;;;;;;25.02;13.10;;;;;;;0.89;52.57;98488.34;5001867;28;20039;-59
2022/02/03 10:28:04;;;;;;;25.45;12.55;;;;;;;0.88;52.23;98487.56;4986214;28;20057;-58
2022/02/03 10:30:52;;;;;;;22.13;12.55;;;;;;;0.95;52.28;98486.78;4990643;28;20057;-60
2022/02/03 10:33:30;;;;;;;23.33;11.68;;;;;;;0.88;52.04;98476.28;4987852;28;20061;-59
2022/02/03 10:36:00;;;;;;;24.02;12.63;;;;;;;0.87;51.66;98482.53;4988384;28;20042;-62
2022/02/03 10:49:56;;;;;;;27.55;14.02;;;;;;;0.51;53.94;98483.63;4971849;28;20054;-60
2022/02/03 10:52:52;;;;;;;26.98;14.07;;;;;;;0.56;52.93;98485.63;4983179;28;20408;-61
2022/02/03 10:58:05;;;;;;;27.60;13.68;;;;;;;0.55;53.03;98490.03;4984544;28;20057;-60
2022/02/03 11:10:41;;;;;;;32.80;17.40;;;;;;;0.70;52.56;98504.75;4973301;28;20046;-61
2022/02/03 11:13:10;;;;;;;29.90;17.67;;;;;;;0.70;53.27;98502.13;4964945;28;20587;-59
2022/02/03 11:15:36;;;;;;;45.72;19.13;;;;;;;0.71;53.20;98503.72;4984991;28;20129;-61
2022/02/03 11:18:06;;;;;;;37.20;18.40;;;;;;;0.64;53.23;98504.50;4986725;28;20053;-61
2022/02/03 11:20:33;;;;;;;;;;;;;;;0.72;53.66;98507.97;4980166;28;20444;-60
2022/02/03 11:26:02;;;;;;;30.08;15.38;;;;;;;0.90;52.11;98505.63;4970133;28;20042;-58
2022/02/03 11:28:48;;;;;;;32.22;15.13;;;;;;;0.95;51.45;98507.66;4971958;28;20054;-63
2022/02/03 11:34:27;;;;;;;28.17;14.60;;;;;;;1.00;52.30;98497.41;5000439;28;20065;-61
2022/02/03 11:40:00;;;;;;;29.35;14.80;;;;;;;0.88;52.40;98499.78;4991877;28;20121;-58
2022/02/03 11:43:13;;;;;;;26.85;15.05;;;;;;;0.96;52.84;98506.63;4977367;28;20113;-58
2022/02/03 12:03:27;;;;;;;28.63;14.48;;;;;;;1.20;51.96;98508.69;4981906;28;20076;-63
2022/02/03 12:11:21;;;;;;;29.58;16.65;;;;;;;0.92;53.37;98514.06;4969377;28;20031;-63
2022/02/03 12:22:11;;;;;;;35.10;16.67;;;;;;;0.92;54.56;98519.28;4978655;28;20031;-62
2022/02/03 12:24:57;;;;;;;34.58;16.17;;;;;;;0.78;55.39;98515.00;4998223;28;20061;-62
2022/02/03 12:30:08;;;;;;;29.23;15.98;;;;;;;0.58;56.18;98514.94;4986698;28;20479;-59
2022/02/03 12:38:22;;;;;;;32.78;16.15;;;;;;;0.28;57.51;98525.63;4984554;28;20053;-62
2022/02/03 12:45:41;;;;;;;37.83;16.75;;;;;;;0.20;58.15;98523.16;4982082;28;20050;-58
2022/02/03 12:48:08;;;;;;;36.60;17.60;;;;;;;0.22;58.59;98521.16;4974268;28;20507;-58
2022/02/03 12:50:39;;;;;;;31.40;15.88;;;;;;;0.15;59.89;98522.94;4968362;28;20053;-59
2022/02/03 12:53:06;;;;;;;37.30;17.20;;;;;;;0.23;59.67;98518.34;4972090;28;20527;-58
2022/02/03 12:55:33;;;;;;;34.55;17.83;;;;;;;0.26;58.75;98527.59;4971778;28;20045;-58
2022/02/03 12:58:02;;;;;;;43.15;17.50;;;;;;;0.22;59.21;98529.00;4986188;28;20050;-58
2022/02/03 13:00:37;;;;;;;38.53;18.08;;;;;;;0.27;58.86;98521.41;4991724;28;20038;-58
2022/02/03 13:03:04;;;;;;;39.65;18.55;;;;;;;0.33;59.17;98525.06;4997499;28;20038;-59
2022/02/03 13:05:34;;;;;;;41.63;18.50;;;;;;;0.36;58.57;98529.88;4971053;28;20432;-60
2022/02/03 13:08:03;;;;;;;36.45;18.38;;;;;;;0.28;58.51;98527.41;4985951;28;20050;-59
2022/02/03 13:10:32;;;;;;;34.65;16.30;;;;;;;0.23;58.40;98535.81;4972915;28;20051;-58
2022/02/03 13:13:30;;;;;;;42.65;17.75;;;;;;;0.26;58.19;98535.41;4985950;28;20042;-59
2022/02/03 13:15:56;;;;;;;30.85;16.58;;;;;;;0.35;58.24;98531.66;4988341;28;20034;-60
2022/02/03 13:18:28;;;;;;;35.42;17.15;;;;;;;0.37;57.53;98529.66;4987905;28;20058;-60
2022/02/03 13:21:08;;;;;;;34.42;17.95;;;;;;;0.36;57.98;98528.06;4986850;28;20043;-59
2022/02/03 13:23:39;;;;;;;43.55;16.85;;;;;;;0.29;57.78;98521.19;4980311;28;20057;-58
2022/02/03 13:26:15;;;;;;;32.13;17.55;;;;;;;0.11;58.17;98514.69;4985873;28;20459;-58
2022/02/03 13:29:05;;;;;;;37.95;17.38;;;;;;;-0.03;59.17;98510.38;4990795;28;20046;-56
2022/02/03 13:31:47;;;;;;;40.15;17.83;;;;;;;-0.11;58.61;98518.38;4999733;28;20509;-59
2022/02/03 13:37:24;;;;;;;36.20;18.48;;;;;;;-0.06;59.60;98521.19;4981075;28;20042;-59
2022/02/03 13:40:14;;;;;;;34.10;18.02;;;;;;;-0.08;59.43;98529.19;4985996;28;20049;-59
2022/02/03 13:42:47;;;;;;;40.55;18.02;;;;;;;-0.14;59.95;98531.78;4987465;28;20125;-60
2022/02/03 13:45:14;;;;;;;43.47;19.13;;;;;;;-0.13;60.55;98525.56;4981447;28;20039;-59
2022/02/03 13:47:41;;;;;;;49.92;21.67;;;;;;;-0.16;60.42;98521.53;4981051;28;20054;-58
2022/02/03 13:50:21;;;;;;;44.65;20.35;;;;;;;-0.22;60.43;98513.66;4977696;28;20504;-59
2022/02/03 13:52:53;;;;;;;44.08;20.85;;;;;;;-0.25;60.56;98514.84;4998411;28;20213;-60
2022/02/03 14:21:26;;;;;;;67.60;28.13;;;;;;;-0.58;63.78;98532.81;4975333;28;20061;-60
2022/02/03 14:30:03;;;;;;;67.95;29.75;;;;;;;-0.47;64.19;98530.50;4988667;28;20053;-59
2022/02/03 14:32:33;;;;;;;71.75;30.40;;;;;;;-0.47;63.38;98532.31;4977654;28;20047;-60
2022/02/03 14:34:58;;;;;;;72.88;32.72;;;;;;;-0.65;63.94;98537.13;4971088;28;20087;-60
2022/02/03 14:37:50;;;;;;;73.53;31.25;;;;;;;-0.81;64.43;98533.78;4981822;28;20543;-59
2022/02/03 14:42:54;;;;;;;74.88;32.33;;;;;;;-0.78;65.47;98540.41;4970328;28;20153;-58
2022/02/03 14:45:20;;;;;;;62.38;28.83;;;;;;;-0.74;65.06;98542.44;4968779;28;20070;-59
2022/02/03 14:47:46;;;;;;;56.55;27.38;;;;;;;-0.69;64.24;98537.50;5012540;28;20129;-58
2022/02/03 14:50:13;;;;;;;66.03;28.83;;;;;;;-0.72;64.35;98542.28;4988803;28;20564;-61
2022/02/03 15:00:45;;;;;;;55.35;25.17;;;;;;;-0.65;64.33;98545.72;4970343;28;20049;-60
2022/02/03 15:03:12;;;;;;;52.78;25.33;;;;;;;-0.63;63.79;98542.97;4986836;28;20047;-60
2022/02/03 15:05:39;;;;;;;53.67;24.33;;;;;;;-0.61;62.78;98549.59;4977553;28;20042;-59
2022/02/03 15:08:15;;;;;;;48.58;23.33;;;;;;;-0.64;63.21;98546.56;4988585;28;20496;-58
2022/02/03 15:10:44;;;;;;;47.60;22.55;;;;;;;-0.63;62.70;98548.16;5006111;28;20277;-60
2022/02/03 15:15:37;;;;;;;56.60;24.92;;;;;;;-0.85;63.36;98540.34;4989583;28;20049;-59
2022/02/03 15:18:02;;;;;;;63.65;24.50;;;;;;;-0.88;63.49;98543.31;4984772;28;20453;-59
2022/02/03 15:20:30;;;;;;;59.63;24.95;;;;;;;-0.88;63.21;98545.09;4971230;28;20038;-57
2022/02/03 15:22:56;;;;;;;53.72;24.88;;;;;;;-0.95;62.99;98558.03;4986649;28;20070;-60
2022/02/03 15:25:22;;;;;;;55.22;25.63;;;;;;;-1.02;63.61;98547.56;4988586;28;20128;-60
2022/02/03 15:27:48;;;;;;;49.80;23.88;;;;;;;-1.10;63.75;98552.88;4990114;28;20479;-58
2022/02/03 15:30:15;;;;;;;56.63;25.17;;;;;;;-1.15;63.63;98552.59;4989415;28;20173;-60
2022/02/03 15:32:42;;;;;;;51.97;23.42;;;;;;;-1.19;63.56;98549.56;4989439;28;20042;-58
2022/02/03 15:35:14;;;;;;;56.63;24.88;;;;;;;-1.31;64.44;98553.63;4989810;28;20053;-60
2022/02/03 15:37:44;;;;;;;53.25;25.92;;;;;;;-1.39;64.15;98554.53;4987736;28;20418;-63
2022/02/03 15:40:16;;;;;;;60.28;26.67;;;;;;;-1.45;65.32;98557.84;4988472;28;20439;-61
2022/02/03 15:42:51;;;;;;;68.50;27.95;;;;;;;-1.46;65.14;98556.25;4990715;28;20494;-58
2022/02/03 15:45:17;;;;;;;53.80;25.20;;;;;;;-1.42;64.74;98559.28;5005565;28;20101;-63
2022/02/03 15:47:48;;;;;;;56.30;25.70;;;;;;;-1.47;65.06;98554.66;4986966;28;20094;-62
2022/02/03 16:17:17;;;;;;;73.05;30.00;;;;;;;-2.06;67.07;98570.16;4985771;28;20050;-60
2022/02/03 16:25:04;;;;;;;69.07;30.08;;;;;;;-1.93;67.04;98572.19;4992264;28;20043;-61
2022/02/03 16:52:34;;;;;;;66.10;28.15;;;;;;;-1.89;69.18;98578.63;4987113;28;20182;-61
2022/02/03 16:55:04;;;;;;;62.20;27.52;;;;;;;-1.93;69.35;98572.19;4987308;28;20049;-60
2022/02/03 16:57:30;;;;;;;80.15;31.75;;;;;;;-1.94;69.93;98573.16;4971940;28;20051;-62
2022/02/03 17:00:04;;;;;;;69.88;28.73;;;;;;;-1.96;69.80;98572.53;4971271;28;20047;-60
2022/02/03 17:02:30;;;;;;;77.18;27.67;;;;;;;-2.00;69.24;98568.66;4999643;28;20046;-60
2022/02/03 17:04:57;;;;;;;74.95;29.20;;;;;;;-1.99;69.92;98568.50;4988728;28;20042;-62
2022/02/03 17:07:23;;;;;;;64.22;27.27;;;;;;;-1.97;69.40;98573.50;4991464;28;20530;-61
2022/02/03 17:09:51;;;;;;;80.70;29.38;;;;;;;-1.92;69.21;98564.19;5003225;28;20042;-62
2022/02/03 17:12:18;;;;;;;67.70;29.48;;;;;;;-1.91;69.19;98572.78;4990680;28;20121;-62
2022/02/03 17:14:44;;;;;;;68.60;27.27;;;;;;;-1.97;69.30;98576.94;4983589;28;20045;-62
2022/02/03 17:17:11;;;;;;;68.40;30.00;;;;;;;-1.94;69.27;98567.94;5001713;28;20053;-62
2022/02/03 17:19:38;;;;;;;65.85;27.73;;;;;;;-1.90;69.61;98562.22;4984419;28;20042;-60
2022/02/03 17:22:04;;;;;;;62.72;27.38;;;;;;;-1.88;69.66;98569.88;4980619;28;20038;-62
2022/02/03 17:24:33;;;;;;;66.57;28.23;;;;;;;-1.93;69.12;98564.38;4990802;28;20078;-65
2022/02/03 17:27:24;;;;;;;59.20;27.35;;;;;;;-1.95;69.70;98561.16;4970288;28;20038;-62
2022/02/03 18:10:37;;;;;;;66.80;28.55;;;;;;;-1.96;70.69;98552.56;4961260;28;20381;-63
2022/02/03 18:50:45;;;;;;;66.32;28.60;;;;;;;-1.99;70.50;98563.31;4992650;28;20038;-61
2022/02/03 18:53:17;;;;;;;65.38;28.40;;;;;;;-1.98;70.31;98564.09;4988577;28;20050;-61
2022/02/03 18:58:32;;;;;;;67.28;28.85;;;;;;;-2.00;70.40;98556.50;4993532;28;20127;-60
2022/02/03 19:25:21;;;;;;;74.05;31.55;;;;;;;-1.87;70.75;98553.28;5007947;28;20073;-62
2022/02/03 20:01:20;;;;;;;70.70;29.05;;;;;;;-1.83;69.99;98550.13;4974489;28;20049;-60
2022/02/03 20:08:49;;;;;;;67.03;28.63;;;;;;;-1.90;70.64;98564.03;4992035;28;20435;-61
2022/02/03 20:11:17;;;;;;;67.07;27.85;;;;;;;-1.85;70.45;98552.13;4986776;28;20051;-61
2022/02/03 20:13:43;;;;;;;70.38;28.90;;;;;;;-1.83;70.37;98559.72;4992381;28;20046;-62
2022/02/03 20:16:10;;;;;;;63.00;26.98;;;;;;;-1.84;70.30;98555.53;4991915;28;20522;-61
2022/02/03 20:18:36;;;;;;;69.18;29.02;;;;;;;-1.89;69.96;98553.44;4992414;28;20052;-62
2022/02/03 20:21:02;;;;;;;67.32;29.38;;;;;;;-1.87;70.38;98556.69;4998412;28;20042;-62
2022/02/03 20:23:27;;;;;;;63.58;30.00;;;;;;;-1.87;70.82;98556.69;4991486;28;20070;-60
2022/02/03 20:25:57;;;;;;;66.88;27.90;;;;;;;-1.86;70.66;98566.09;4992452;28;20077;-62
2022/02/03 20:28:27;;;;;;;63.13;28.52;;;;;;;-1.82;70.54;98563.97;4992134;28;20188;-62
2022/02/03 20:30:53;;;;;;;64.38;28.73;;;;;;;-1.83;70.42;98557.13;4990569;28;20492;-62
2022/02/03 20:33:19;;;;;;;70.32;28.45;;;;;;;-1.77;70.99;98559.00;4991998;28;20053;-61
2022/02/03 20:35:44;;;;;;;67.10;30.17;;;;;;;-1.77;71.13;98556.41;4989969;28;20046;-65
2022/02/03 20:38:11;;;;;;;63.30;29.08;;;;;;;-1.75;70.52;98554.44;4987854;28;20140;-62
2022/02/03 20:40:37;;;;;;;65.22;28.38;;;;;;;-1.79;70.86;98560.16;4974354;28;20038;-61
2022/02/03 20:43:03;;;;;;;68.60;29.67;;;;;;;-1.80;70.73;98563.75;4987174;28;20455;-60
2022/02/03 20:45:29;;;;;;;68.13;30.30;;;;;;;-1.80;71.15;98558.56;4981852;28;20043;-64
2022/02/03 20:47:54;;;;;;;68.70;29.02;;;;;;;-1.89;70.66;98556.03;4986205;28;20042;-64
2022/02/03 20:50:20;;;;;;;71.97;29.90;;;;;;;-1.83;71.07;98570.13;5006610;28;20034;-64
2022/02/03 20:52:49;;;;;;;64.85;28.35;;;;;;;-1.99;70.85;98537.34;4976360;28;20051;-63
2022/02/03 20:55:16;;;;;;;65.60;28.20;;;;;;;-1.83;70.77;98563.13;4992095;28;20213;-63
2022/02/03 20:57:42;;;;;;;68.43;29.00;;;;;;;-1.86;70.80;98565.28;4985539;28;20050;-64
2022/02/03 21:05:15;;;;;;;70.00;30.05;;;;;;;-2.05;71.18;98574.41;4990698;28;20046;-63
2022/02/03 21:07:43;;;;;;;69.50;29.92;;;;;;;-2.01;71.51;98570.44;4986344;28;20412;-61
2022/02/03 21:10:15;;;;;;;75.35;32.17;;;;;;;-1.93;71.37;98577.38;4991826;28;20049;-60
2022/02/03 21:12:41;;;;;;;66.97;29.13;;;;;;;-1.95;71.48;98579.34;4977464;28;20043;-64
2022/02/03 21:15:09;;;;;;;67.43;27.85;;;;;;;-1.95;71.55;98569.75;4978969;28;20643;-64
2022/02/03 21:17:35;;;;;;;67.18;29.02;;;;;;;-1.91;71.36;98567.59;4990585;28;20050;-63
2022/02/03 21:20:13;;;;;;;69.57;29.70;;;;;;;-1.87;71.43;98574.06;4986852;28;20039;-64
2022/02/03 21:22:39;;;;;;;68.90;27.25;;;;;;;-1.83;71.16;98570.91;4989365;28;20519;-61
2022/02/03 21:25:18;;;;;;;66.85;26.90;;;;;;;-1.85;69.84;98574.69;4991863;28;20042;-61
2022/02/03 21:27:45;;;;;;;70.40;28.63;;;;;;;-1.87;70.79;98577.47;4985760;28;20046;-62
2022/02/03 21:30:11;;;;;;;66.80;29.02;;;;;;;-1.93;71.04;98570.38;4985949;28;20554;-62
2022/02/03 21:32:37;;;;;;;64.55;27.38;;;;;;;-1.85;70.67;98585.91;4986587;28;20138;-61
2022/02/03 21:35:07;;;;;;;63.90;28.00;;;;;;;-1.86;70.92;98578.28;4985683;28;20828;-64
2022/02/03 21:37:33;;;;;;;62.25;25.77;;;;;;;-1.87;70.47;98589.66;4992500;28;20101;-62
2022/02/03 21:39:59;;;;;;;63.60;26.38;;;;;;;-1.86;70.57;98583.47;4977210;28;20090;-63
2022/02/03 21:42:25;;;;;;;65.53;25.90;;;;;;;-1.81;70.91;98581.16;4980245;28;20042;-62
2022/02/03 21:44:51;;;;;;;53.70;22.42;;;;;;;-1.88;69.64;98593.25;4982005;28;20526;-62
2022/02/03 21:47:18;;;;;;;49.75;22.35;;;;;;;-1.88;70.33;98588.06;4985541;28;20065;-62
2022/02/03 21:49:44;;;;;;;50.25;21.77;;;;;;;-1.85;70.04;98591.09;4995030;28;20125;-61
2022/02/03 21:52:18;;;;;;;54.60;20.77;;;;;;;-1.90;69.68;98588.22;4994901;28;20034;-61
2022/02/03 21:54:44;;;;;;;54.55;21.77;;;;;;;-1.89;70.76;98589.00;4995256;28;20042;-63
2022/02/03 21:57:10;;;;;;;48.13;21.52;;;;;;;-1.90;70.35;98584.81;4993462;28;20047;-62
2022/02/03 21:59:36;;;;;;;50.72;19.92;;;;;;;-1.89;70.44;98581.22;4993989;28;20071;-62
2022/02/03 22:02:05;;;;;;;48.08;21.02;;;;;;;-1.82;70.27;98584.75;5009705;28;20076;-61
2022/02/03 22:04:32;;;;;;;51.58;21.33;;;;;;;-1.79;69.88;98588.75;4993135;28;20117;-61
2022/02/03 22:06:59;;;;;;;45.63;20.85;;;;;;;-1.85;70.03;98577.31;4957959;28;20042;-62
2022/02/03 22:09:24;;;;;;;48.65;20.52;;;;;;;-1.85;70.16;98575.50;4975604;28;20480;-64
2022/02/03 22:11:50;;;;;;;41.55;19.17;;;;;;;-1.85;69.61;98574.69;5003579;28;20046;-62
2022/02/03 22:14:16;;;;;;;45.50;19.45;;;;;;;-1.83;69.19;98575.31;4974163;28;20201;-63
2022/02/03 22:16:41;;;;;;;44.78;19.92;;;;;;;-1.96;69.70;98570.75;4980483;28;20053;-63
2022/02/03 22:19:07;;;;;;;43.50;20.27;;;;;;;-1.93;69.21;98577.38;4994933;28;20042;-62
2022/02/03 22:50:01;;;;;;;37.30;16.33;;;;;;;-2.07;68.59;98573.75;4974514;28;20571;-60
2022/02/03 22:52:29;;;;;;;35.97;16.25;;;;;;;-2.08;68.44;98565.16;4986224;28;20283;-61
2022/02/03 22:54:55;;;;;;;35.60;16.38;;;;;;;-2.11;68.82;98569.91;4993844;28;20054;-63